createdAt,value
2022-11-27T00:01:17.755Z,101303.56
2022-11-27T00:03:44.778Z,101306.25
2022-11-27T00:06:16.755Z,101311.66
2022-11-27T00:08:44.879Z,101309.22
2022-11-27T00:11:23.137Z,101301.09
2022-11-27T00:13:51.112Z,101310.81
2022-11-27T00:16:18.926Z,101306.63
2022-11-27T00:18:46.294Z,101313.16
2022-11-27T00:21:33.965Z,101314.09
2022-11-27T00:24:03.750Z,101318.88
2022-11-27T00:26:37.247Z,101309.63
2022-11-27T00:29:04.729Z,101311.41
2022-11-27T00:31:33.228Z,101311.56
2022-11-27T00:34:03.015Z,101316.19
2022-11-27T00:36:34.688Z,101310.91
2022-11-27T00:39:01.998Z,101315.38
2022-11-27T00:41:30.331Z,101308.16
2022-11-27T00:43:57.865Z,101304.09
2022-11-27T00:46:29.215Z,101308.97
2022-11-27T00:49:00.565Z,101309.50
2022-11-27T00:51:28.232Z,101305.97
2022-11-27T00:53:55.486Z,101301.63
2022-11-27T00:56:25.680Z,101306.78
2022-11-27T00:58:53.380Z,101306.41
2022-11-27T01:01:23.996Z,101305.97
2022-11-27T01:03:51.738Z,101309.22
2022-11-27T01:06:20.468Z,101308.97
2022-11-27T01:08:47.900Z,101305.28
2022-11-27T01:11:26.208Z,101297.41
2022-11-27T01:13:53.920Z,101304.06
2022-11-27T01:16:23.167Z,101302.59
2022-11-27T01:18:51.776Z,101301.38
2022-11-27T01:21:21.162Z,101302.69
2022-11-27T01:23:49.323Z,101299.16
2022-11-27T01:26:17.863Z,101302.28
2022-11-27T01:28:44.949Z,101296.06
2022-11-27T01:31:17.737Z,101300.53
2022-11-27T01:33:45.519Z,101305.28
2022-11-27T01:36:14.744Z,101311.63
2022-11-27T01:38:41.663Z,101313.00
2022-11-27T01:41:18.352Z,101307.84
2022-11-27T01:43:50.587Z,101309.16
2022-11-27T01:46:39.253Z,101315.84
2022-11-27T01:49:12.013Z,101306.75
2022-11-27T01:51:46.192Z,101308.38
2022-11-27T01:54:13.283Z,101306.09
2022-11-27T01:56:41.738Z,101302.69
2022-11-27T01:59:08.694Z,101304.00
2022-11-27T02:01:35.582Z,101300.47
2022-11-27T02:04:02.954Z,101301.44
2022-11-27T02:06:30.162Z,101300.63
2022-11-27T02:08:57.105Z,101298.50
2022-11-27T02:11:50.110Z,101300.00
2022-11-27T02:14:54.723Z,101307.75
2022-11-27T02:17:36.994Z,101312.78
2022-11-27T02:20:28.554Z,101312.78
2022-11-27T02:23:32.864Z,101309.13
2022-11-27T02:26:15.810Z,101309.53
2022-11-27T02:29:12.024Z,101320.13
2022-11-27T02:32:04.930Z,101316.31
2022-11-27T02:34:46.073Z,101320.13
2022-11-27T02:37:35.768Z,101327.03
2022-11-27T02:40:05.807Z,101330.72
2022-11-27T02:42:41.590Z,101332.06
2022-11-27T02:45:18.405Z,101332.34
2022-11-27T02:47:48.509Z,101332.06
2022-11-27T02:50:20.272Z,101334.66
2022-11-27T02:52:49.075Z,101325.81
2022-11-27T02:55:20.549Z,101328.53
2022-11-27T02:57:48.868Z,101331.25
2022-11-27T03:00:16.126Z,101323.66
2022-11-27T03:02:57.345Z,101319.31
2022-11-27T03:05:27.433Z,101317.41
2022-11-27T03:08:24.364Z,101320.41
2022-11-27T03:11:10.538Z,101321.72
2022-11-27T03:13:42.829Z,101319.28
2022-11-27T03:16:27.279Z,101314.69
2022-11-27T03:19:18.168Z,101313.88
2022-11-27T03:21:52.868Z,101314.78
2022-11-27T03:24:19.827Z,101309.91
2022-11-27T03:26:46.779Z,101305.69
2022-11-27T03:29:18.136Z,101309.53
2022-11-27T03:31:45.018Z,101312.09
2022-11-27T03:34:12.158Z,101301.09
2022-11-27T03:36:38.892Z,101302.97
2022-11-27T03:39:05.952Z,101295.63
2022-11-27T03:41:56.601Z,101297.53
2022-11-27T03:44:53.747Z,101290.84
2022-11-27T03:47:38.653Z,101290.44
2022-11-27T03:50:11.631Z,101290.44
2022-11-27T03:52:50.284Z,101285.38
2022-11-27T03:55:31.720Z,101283.72
2022-11-27T03:58:15.930Z,101279.56
2022-11-27T04:00:45.063Z,101279.56
2022-11-27T04:03:13.493Z,101277.13
2022-11-27T04:05:40.654Z,101278.75
2022-11-27T04:08:07.478Z,101274.66
2022-11-27T04:10:34.122Z,101268.00
2022-11-27T04:13:00.776Z,101264.59
2022-11-27T04:15:27.648Z,101262.97
2022-11-27T04:17:54.319Z,101260.66
2022-11-27T04:20:21.012Z,101259.97
2022-11-27T04:22:47.828Z,101255.78
2022-11-27T04:25:14.526Z,101253.19
2022-11-27T04:27:41.287Z,101253.47
2022-11-27T04:30:08.668Z,101258.88
2022-11-27T04:32:35.477Z,101255.75
2022-11-27T04:35:02.247Z,101245.84
2022-11-27T04:37:30.268Z,101262.66
2022-11-27T04:39:56.967Z,101262.38
2022-11-27T04:42:23.771Z,101266.16
2022-11-27T04:44:50.399Z,101274.84
2022-11-27T04:47:17.466Z,101269.78
2022-11-27T04:49:44.259Z,101257.72
2022-11-27T04:52:11.121Z,101265.34
2022-11-27T04:54:38.360Z,101266.44
2022-11-27T04:57:05.584Z,101264.81
2022-11-27T04:59:32.382Z,101263.44
2022-11-27T05:01:59.218Z,101261.94
2022-11-27T05:04:26.040Z,101267.19
2022-11-27T05:06:52.786Z,101262.28
2022-11-27T05:09:20.056Z,101264.34
2022-11-27T05:11:46.897Z,101260.25
2022-11-27T05:14:20.529Z,101253.72
2022-11-27T05:16:58.076Z,101246.34
2022-11-27T05:19:26.984Z,101241.06
2022-11-27T05:21:55.108Z,101245.38
2022-11-27T05:24:24.568Z,101241.44
2022-11-27T05:26:51.447Z,101237.25
2022-11-27T05:29:18.683Z,101241.53
2022-11-27T05:31:45.636Z,101234.25
2022-11-27T05:34:12.919Z,101248.03
2022-11-27T05:36:39.759Z,101243.16
2022-11-27T05:39:08.293Z,101237.81
2022-11-27T05:41:36.615Z,101255.28
2022-11-27T05:44:03.867Z,101255.28
2022-11-27T05:46:30.774Z,101243.16
2022-11-27T05:48:57.612Z,101246.41
2022-11-27T05:51:24.955Z,101243.44
2022-11-27T05:53:51.751Z,101249.66
2022-11-27T05:56:19.384Z,101250.75
2022-11-27T05:58:47.655Z,101252.50
2022-11-27T06:01:16.584Z,101255.28
2022-11-27T06:03:43.368Z,101258.00
2022-11-27T06:06:16.505Z,101249.72
2022-11-27T06:08:44.347Z,101259.59
2022-11-27T06:11:19.364Z,101254.69
2022-11-27T06:13:46.837Z,101267.53
2022-11-27T06:16:16.645Z,101267.09
2022-11-27T06:18:44.162Z,101269.66
2022-11-27T06:21:13.139Z,101267.09
2022-11-27T06:23:41.277Z,101261.25
2022-11-27T06:26:16.620Z,101268.25
2022-11-27T06:28:43.812Z,101272.25
2022-11-27T06:31:17.522Z,101266.84
2022-11-27T06:33:46.980Z,101272.88
2022-11-27T06:36:13.799Z,101274.56
2022-11-27T06:38:40.713Z,101265.97
2022-11-27T06:41:10.467Z,101275.50
2022-11-27T06:43:37.607Z,101271.25
2022-11-27T06:46:06.004Z,101282.13
2022-11-27T06:48:33.740Z,101288.94
2022-11-27T06:51:06.202Z,101283.34
2022-11-27T06:53:35.255Z,101285.94
2022-11-27T06:56:04.501Z,101286.13
2022-11-27T06:58:31.482Z,101287.00
2022-11-27T07:01:03.256Z,101280.78
2022-11-27T07:03:30.278Z,101284.53
2022-11-27T07:06:00.729Z,101294.97
2022-11-27T07:08:27.759Z,101303.03
2022-11-27T07:10:54.788Z,101299.34
2022-11-27T07:13:21.565Z,101295.44
2022-11-27T07:15:48.278Z,101301.38
2022-11-27T07:18:15.004Z,101301.22
2022-11-27T07:20:41.684Z,101297.53
2022-11-27T07:23:08.407Z,101300.19
2022-11-27T07:25:37.398Z,101288.47
2022-11-27T07:28:05.031Z,101288.56
2022-11-27T07:30:32.620Z,101291.84
2022-11-27T07:33:02.220Z,101296.56
2022-11-27T07:35:29.684Z,101292.22
2022-11-27T07:37:56.436Z,101294.00
2022-11-27T07:40:23.407Z,101300.94
2022-11-27T07:42:50.132Z,101304.56
2022-11-27T07:45:17.524Z,101301.94
2022-11-27T07:47:44.263Z,101301.75
2022-11-27T07:50:11.653Z,101301.31
2022-11-27T07:52:41.998Z,101294.28
2022-11-27T07:55:09.714Z,101295.53
2022-11-27T07:57:36.568Z,101289.84
2022-11-27T08:00:04.025Z,101287.72
2022-11-27T08:02:31.579Z,101286.38
2022-11-27T08:04:58.544Z,101286.69
2022-11-27T08:07:29.740Z,101279.50
2022-11-27T08:10:00.021Z,101283.09
2022-11-27T08:12:27.046Z,101284.97
2022-11-27T08:14:53.923Z,101279.19
2022-11-27T08:17:20.655Z,101281.50
2022-11-27T08:19:47.366Z,101282.56
2022-11-27T08:22:15.427Z,101279.84
2022-11-27T08:24:42.817Z,101281.34
2022-11-27T08:27:11.253Z,101277.13
2022-11-27T08:29:38.550Z,101277.25
2022-11-27T08:32:06.057Z,101281.00
2022-11-27T08:34:33.081Z,101290.34
2022-11-27T08:36:59.924Z,101280.75
2022-11-27T08:39:27.527Z,101274.88
2022-11-27T08:41:56.053Z,101281.28
2022-11-27T08:44:22.876Z,101278.25
2022-11-27T08:46:49.787Z,101277.88
2022-11-27T08:49:16.621Z,101281.00
2022-11-27T08:51:43.347Z,101291.41
2022-11-27T08:54:10.218Z,101280.34
2022-11-27T08:56:36.973Z,101291.25
2022-11-27T08:59:03.777Z,101278.41
2022-11-27T09:01:32.089Z,101286.91
2022-11-27T09:03:59.564Z,101282.97
2022-11-27T09:06:29.560Z,101286.00
2022-11-27T09:09:01.551Z,101284.81
2022-11-27T09:11:29.730Z,101282.22
2022-11-27T09:13:56.700Z,101278.00
2022-11-27T09:16:23.671Z,101272.19
2022-11-27T09:18:52.686Z,101270.56
2022-11-27T09:21:21.800Z,101269.75
2022-11-27T09:24:00.404Z,101273.59
2022-11-27T09:26:28.491Z,101277.34
2022-11-27T09:28:57.513Z,101265.09
2022-11-27T09:31:25.988Z,101262.59
2022-11-27T09:33:52.791Z,101261.28
2022-11-27T09:36:25.219Z,101259.97
2022-11-27T09:38:52.625Z,101258.47
2022-11-27T09:41:19.417Z,101252.91
2022-11-27T09:43:58.381Z,101253.78
2022-11-27T09:46:37.044Z,101251.56
2022-11-27T09:49:12.591Z,101251.00
2022-11-27T09:51:48.765Z,101241.44
2022-11-27T09:54:34.795Z,101238.56
2022-11-27T09:57:02.820Z,101239.47
2022-11-27T09:59:50.784Z,101228.66
2022-11-27T10:02:29.658Z,101230.50
2022-11-27T10:05:13.368Z,101229.53
2022-11-27T10:07:47.990Z,101228.91
2022-11-27T10:10:45.586Z,101227.47
2022-11-27T10:13:21.297Z,101211.00
2022-11-27T10:16:22.961Z,101213.88
2022-11-27T10:19:12.196Z,101205.31
2022-11-27T10:22:16.634Z,101203.53
2022-11-27T10:25:25.237Z,101196.25
2022-11-27T10:27:59.037Z,101202.44
2022-11-27T10:30:28.527Z,101190.75
2022-11-27T10:32:57.842Z,101194.00
2022-11-27T10:35:31.726Z,101181.72
2022-11-27T10:38:13.651Z,101176.38
2022-11-27T10:40:55.863Z,101181.41
2022-11-27T10:43:26.262Z,101180.41
2022-11-27T10:46:13.422Z,101172.47
2022-11-27T10:48:40.525Z,101170.34
2022-11-27T10:51:16.001Z,101174.09
2022-11-27T10:53:45.393Z,101163.38
2022-11-27T10:56:41.236Z,101162.56
2022-11-27T10:59:33.196Z,101163.06
2022-11-27T11:02:03.517Z,101153.50
2022-11-27T11:04:48.407Z,101155.78
2022-11-27T11:07:29.349Z,101151.41
2022-11-27T11:09:59.097Z,101146.38
2022-11-27T11:12:27.389Z,101149.63
2022-11-27T11:15:01.694Z,101150.28
2022-11-27T11:17:37.786Z,101134.22
2022-11-27T11:20:22.489Z,101139.72
2022-11-27T11:22:50.368Z,101137.13
2022-11-27T11:25:22.050Z,101137.78
2022-11-27T11:27:51.044Z,101132.72
2022-11-27T11:30:23.676Z,101130.63
2022-11-27T11:32:51.930Z,101131.09
2022-11-27T11:35:25.001Z,101129.31
2022-11-27T11:37:52.813Z,101132.38
2022-11-27T11:40:25.259Z,101122.00
2022-11-27T11:42:58.969Z,101122.22
2022-11-27T11:45:32.883Z,101127.88
2022-11-27T11:48:56.413Z,101120.75
2022-11-27T11:51:22.789Z,101113.50
2022-11-27T11:54:33.156Z,101105.91
2022-11-27T11:57:07.484Z,101108.31
2022-11-27T11:59:50.383Z,101117.38
2022-11-27T12:02:26.077Z,101105.59
2022-11-27T12:05:17.167Z,101108.16
2022-11-27T12:08:12.958Z,101097.59
2022-11-27T12:10:58.271Z,101099.59
2022-11-27T12:13:43.867Z,101103.00
2022-11-27T12:16:16.730Z,101090.84
2022-11-27T12:19:20.715Z,101097.81
2022-11-27T12:21:52.478Z,101081.59
2022-11-27T12:24:39.829Z,101089.69
2022-11-27T12:27:21.951Z,101085.50
2022-11-27T12:30:05.443Z,101091.31
2022-11-27T12:32:38.141Z,101082.06
2022-11-27T12:35:41.187Z,101079.53
2022-11-27T12:38:16.935Z,101071.88
2022-11-27T12:41:42.381Z,101072.84
2022-11-27T12:44:44.622Z,101079.31
2022-11-27T12:47:40.334Z,101083.34
2022-11-27T12:50:34.379Z,101073.16
2022-11-27T12:53:11.856Z,101068.31
2022-11-27T12:55:40.827Z,101078.31
2022-11-27T12:58:19.476Z,101072.97
2022-11-27T13:00:48.308Z,101074.59
2022-11-27T13:03:37.740Z,101075.13
2022-11-27T13:06:13.950Z,101066.31
2022-11-27T13:08:54.747Z,101069.88
2022-11-27T13:11:35.585Z,101071.34
2022-11-27T13:14:26.640Z,101066.63
2022-11-27T13:16:58.107Z,101058.22
2022-11-27T13:19:40.782Z,101054.00
2022-11-27T13:22:13.388Z,101069.22
2022-11-27T13:24:40.805Z,101067.84
2022-11-27T13:27:23.881Z,101062.81
2022-11-27T13:29:53.651Z,101060.06
2022-11-27T13:32:27.701Z,101057.94
2022-11-27T13:34:57.515Z,101055.38
2022-11-27T13:37:37.301Z,101052.50
2022-11-27T13:40:16.734Z,101062.00
2022-11-27T13:42:48.504Z,101054.88
2022-11-27T13:45:37.539Z,101051.84
2022-11-27T13:48:21.992Z,101054.06
2022-11-27T13:50:48.944Z,101055.84
2022-11-27T13:53:15.718Z,101060.56
2022-11-27T13:55:54.502Z,101053.94
2022-11-27T13:58:39.776Z,101050.13
2022-11-27T14:01:17.460Z,101050.78
2022-11-27T14:03:45.376Z,101053.03
2022-11-27T14:06:18.547Z,101053.09
2022-11-27T14:09:04.071Z,101045.16
2022-11-27T14:11:37.163Z,101053.38
2022-11-27T14:14:20.050Z,101050.50
2022-11-27T14:16:57.881Z,101049.84
2022-11-27T14:19:33.545Z,101049.03
2022-11-27T14:22:01.802Z,101043.72
2022-11-27T14:24:41.633Z,101039.16
2022-11-27T14:27:17.900Z,101039.34
2022-11-27T14:29:45.164Z,101039.84
2022-11-27T14:32:14.679Z,101039.34
2022-11-27T14:34:42.148Z,101034.16
2022-11-27T14:37:21.632Z,101031.06
2022-11-27T14:39:48.520Z,101026.41
2022-11-27T14:42:28.631Z,101036.25
2022-11-27T14:45:08.863Z,101027.66
2022-11-27T14:47:38.571Z,101036.78
2022-11-27T14:50:07.399Z,101031.41
2022-11-27T14:52:34.517Z,101035.78
2022-11-27T14:55:02.404Z,101038.19
2022-11-27T14:57:31.379Z,101034.31
2022-11-27T15:00:24.325Z,101030.53
2022-11-27T15:02:52.165Z,101034.91
2022-11-27T15:05:29.911Z,101032.44
2022-11-27T15:07:58.870Z,101041.28
2022-11-27T15:10:41.981Z,101048.59
2022-11-27T15:13:27.817Z,101043.59
2022-11-27T15:16:12.659Z,101045.03
2022-11-27T15:18:40.652Z,101047.53
2022-11-27T15:21:13.558Z,101053.50
2022-11-27T15:23:47.089Z,101047.09
2022-11-27T15:26:26.013Z,101054.56
2022-11-27T15:28:54.721Z,101052.06
2022-11-27T15:31:35.085Z,101049.34
2022-11-27T15:34:17.245Z,101052.44
2022-11-27T15:36:48.788Z,101050.44
2022-11-27T15:39:37.054Z,101053.03
2022-11-27T15:42:10.162Z,101048.03
2022-11-27T15:44:38.654Z,101050.63
2022-11-27T15:47:06.710Z,101053.88
2022-11-27T15:49:33.940Z,101049.75
2022-11-27T15:52:00.795Z,101053.00
2022-11-27T15:54:27.666Z,101051.38
2022-11-27T15:56:54.473Z,101059.78
2022-11-27T15:59:21.468Z,101060.06
2022-11-27T16:01:49.779Z,101052.34
2022-11-27T16:04:16.953Z,101061.97
2022-11-27T16:06:43.913Z,101060.94
2022-11-27T16:09:10.775Z,101064.22
2022-11-27T16:11:37.567Z,101053.09
2022-11-27T16:14:04.495Z,101058.09
2022-11-27T16:16:31.472Z,101063.69
2022-11-27T16:19:02.666Z,101056.97
2022-11-27T16:21:30.630Z,101057.28
2022-11-27T16:24:02.864Z,101060.13
2022-11-27T16:26:30.882Z,101065.25
2022-11-27T16:28:58.561Z,101065.94
2022-11-27T16:31:26.765Z,101071.22
2022-11-27T16:33:54.003Z,101072.88
2022-11-27T16:36:24.133Z,101074.91
2022-11-27T16:38:54.256Z,101072.06
2022-11-27T16:41:23.824Z,101069.19
2022-11-27T16:43:56.311Z,101072.03
2022-11-27T16:46:27.698Z,101066.25
2022-11-27T16:48:56.193Z,101056.88
2022-11-27T16:51:25.603Z,101058.91
2022-11-27T16:53:54.746Z,101055.25
2022-11-27T16:56:26.770Z,101043.41
2022-11-27T16:58:59.413Z,101045.31
2022-11-27T17:01:31.834Z,101036.09
2022-11-27T17:03:59.745Z,101036.78
2022-11-27T17:06:33.489Z,101030.41
2022-11-27T17:09:02.227Z,101020.25
2022-11-27T17:11:33.840Z,101024.03
2022-11-27T17:14:05.852Z,101023.38
2022-11-27T17:16:35.284Z,101026.94
2022-11-27T17:19:03.986Z,101015.25
2022-11-27T17:21:33.685Z,101023.38
2022-11-27T17:24:03.068Z,101030.13
2022-11-27T17:26:35.708Z,101022.03
2022-11-27T17:29:03.588Z,101016.38
2022-11-27T17:31:37.086Z,101022.59
2022-11-27T17:34:05.917Z,101027.59
2022-11-27T17:36:37.197Z,101015.28
2022-11-27T17:39:07.939Z,101013.38
2022-11-27T17:41:35.353Z,101025.06
2022-11-27T17:44:05.298Z,101019.09
2022-11-27T17:46:33.125Z,101016.34
2022-11-27T17:49:01.939Z,101023.81
2022-11-27T17:51:31.498Z,101022.59
2022-11-27T17:54:03.385Z,101013.94
2022-11-27T17:56:32.435Z,101016.34
2022-11-27T17:59:02.335Z,100992.50
2022-11-27T18:01:30.804Z,101008.75
2022-11-27T18:04:01.180Z,101001.16
2022-11-27T18:06:31.326Z,101006.19
2022-11-27T18:09:00.005Z,101002.25
2022-11-27T18:11:30.435Z,101005.19
2022-11-27T18:14:00.484Z,101002.13
2022-11-27T18:16:38.785Z,101008.63
2022-11-27T18:19:10.466Z,101005.50
2022-11-27T18:21:38.488Z,100999.00
2022-11-27T18:24:24.091Z,100996.59
2022-11-27T18:27:07.731Z,100989.22
2022-11-27T18:29:41.430Z,100994.25
2022-11-27T18:32:08.838Z,100991.53
2022-11-27T18:34:35.783Z,100991.63
2022-11-27T18:37:02.795Z,100989.72
2022-11-27T18:39:29.831Z,100990.81
2022-11-27T18:41:56.636Z,100981.31
2022-11-27T18:44:23.839Z,100976.16
2022-11-27T18:46:50.919Z,100975.38
2022-11-27T18:49:18.456Z,100972.16
2022-11-27T18:51:46.282Z,100970.66
2022-11-27T18:54:13.032Z,100957.78
2022-11-27T18:56:40.178Z,100958.31
2022-11-27T18:59:08.692Z,100953.84
2022-11-27T19:01:41.782Z,100956.13
2022-11-27T19:04:09.710Z,100967.78
2022-11-27T19:06:37.472Z,100955.44
2022-11-27T19:09:05.247Z,100958.31
2022-11-27T19:11:34.059Z,100958.31
2022-11-27T19:14:01.076Z,100956.97
2022-11-27T19:16:31.784Z,100959.81
2022-11-27T19:19:00.609Z,100957.25
2022-11-27T19:21:29.913Z,100969.56
2022-11-27T19:23:58.919Z,100965.47
2022-11-27T19:26:28.659Z,100972.09
2022-11-27T19:28:57.956Z,100955.16
2022-11-27T19:31:28.231Z,100968.97
2022-11-27T19:33:58.985Z,100966.81
2022-11-27T19:36:26.591Z,100972.91
2022-11-27T19:39:18.179Z,100976.72
2022-11-27T19:41:45.244Z,100970.34
2022-11-27T19:44:14.068Z,100954.22
2022-11-27T19:46:44.679Z,100962.09
2022-11-27T19:49:21.470Z,100962.41
2022-11-27T19:51:49.831Z,100966.88
2022-11-27T19:54:19.387Z,100955.38
2022-11-27T19:56:46.525Z,100952.69
2022-11-27T19:59:13.537Z,100956.72
2022-11-27T20:01:42.627Z,100951.88
2022-11-27T20:04:13.082Z,100951.56
2022-11-27T20:06:40.034Z,100963.50
2022-11-27T20:09:07.660Z,100960.56
2022-11-27T20:11:37.831Z,100955.75
2022-11-27T20:14:06.009Z,100954.56
2022-11-27T20:16:34.285Z,100945.19
2022-11-27T20:19:06.083Z,100939.00
2022-11-27T20:21:41.759Z,100947.75
2022-11-27T20:24:08.710Z,100957.66
2022-11-27T20:26:42.610Z,100955.31
2022-11-27T20:29:10.935Z,100949.34
2022-11-27T20:31:39.608Z,100953.03
2022-11-27T20:34:08.721Z,100941.22
2022-11-27T20:36:39.390Z,100945.59
2022-11-27T20:39:06.287Z,100943.97
2022-11-27T20:41:33.428Z,100942.34
2022-11-27T20:44:02.789Z,100940.72
2022-11-27T20:46:30.915Z,100935.59
2022-11-27T20:49:01.333Z,100921.09
2022-11-27T20:51:33.244Z,100922.28
2022-11-27T20:54:06.891Z,100919.06
2022-11-27T20:56:34.238Z,100924.22
2022-11-27T20:59:04.117Z,100917.72
2022-11-27T21:01:33.771Z,100911.50
2022-11-27T21:04:04.469Z,100911.22
2022-11-27T21:06:32.407Z,100909.88
2022-11-27T21:09:04.418Z,100901.25
2022-11-27T21:11:32.144Z,100902.59
2022-11-27T21:14:01.396Z,100897.19
2022-11-27T21:16:30.696Z,100894.47
2022-11-27T21:19:24.471Z,100884.97
2022-11-27T21:21:51.745Z,100885.53
2022-11-27T21:24:19.554Z,100890.56
2022-11-27T21:26:46.666Z,100885.28
2022-11-27T21:29:15.373Z,100885.28
2022-11-27T21:31:46.728Z,100884.59
2022-11-27T21:34:15.066Z,100887.16
2022-11-27T21:36:41.938Z,100890.66
2022-11-27T21:39:12.300Z,100887.09
2022-11-27T21:41:39.362Z,100875.47
2022-11-27T21:44:06.589Z,100875.19
2022-11-27T21:46:33.781Z,100873.28
2022-11-27T21:49:04.468Z,100880.91
2022-11-27T21:51:31.802Z,100877.34
2022-11-27T21:53:59.810Z,100872.88
2022-11-27T21:56:29.320Z,100876.69
2022-11-27T21:59:01.423Z,100875.75
2022-11-27T22:01:33.954Z,100864.34
2022-11-27T22:04:01.093Z,100865.47
2022-11-27T22:06:30.791Z,100857.16
2022-11-27T22:08:59.193Z,100852.41
2022-11-27T22:11:28.850Z,100858.22
2022-11-27T22:14:06.756Z,100856.47
2022-11-27T22:16:39.866Z,100850.09
2022-11-27T22:19:11.304Z,100842.41
2022-11-27T22:21:38.134Z,100850.28
2022-11-27T22:24:05.235Z,100837.41
2022-11-27T22:26:32.343Z,100841.31
2022-11-27T22:28:59.519Z,100841.59
2022-11-27T22:31:33.000Z,100841.34
2022-11-27T22:34:00.142Z,100839.88
2022-11-27T22:36:35.035Z,100841.38
2022-11-27T22:39:04.464Z,100837.44
2022-11-27T22:41:36.192Z,100833.50
2022-11-27T22:44:09.909Z,100833.38
2022-11-27T22:46:39.690Z,100829.72
2022-11-27T22:49:07.461Z,100830.81
2022-11-27T22:51:36.209Z,100829.72
2022-11-27T22:54:04.128Z,100839.47
2022-11-27T22:56:33.774Z,100830.81
2022-11-27T22:59:30.656Z,100838.53
2022-11-27T23:01:48.716Z,100828.81
2022-11-27T23:04:16.877Z,100832.19
2022-11-27T23:06:48.206Z,100837.34
2022-11-27T23:09:17.890Z,100836.78
2022-11-27T23:11:44.863Z,100837.72
2022-11-27T23:14:11.766Z,100835.56
2022-11-27T23:16:38.628Z,100835.19
2022-11-27T23:19:05.450Z,100837.66
2022-11-27T23:21:35.345Z,100834.34
2022-11-27T23:24:02.209Z,100829.50
2022-11-27T23:26:29.014Z,100828.38
2022-11-27T23:28:56.242Z,100829.69
2022-11-27T23:31:32.613Z,100818.88
2022-11-27T23:34:02.089Z,100822.38
2022-11-27T23:36:30.567Z,100818.31
2022-11-27T23:38:59.705Z,100813.75
2022-11-27T23:41:29.736Z,100814.56
2022-11-27T23:43:56.933Z,100805.53
2022-11-27T23:46:27.204Z,100802.13
2022-11-27T23:48:59.520Z,100797.81
2022-11-27T23:51:29.666Z,100814.88
2022-11-27T23:53:57.033Z,100807.59
2022-11-27T23:56:29.502Z,100807.28
2022-11-27T23:58:59.622Z,100802.97
